Time;durP1;ratioP1;P1;durP2;ratioP2;P2;SDS_P1;SDS_P2;PMS_P1;PMS_P2;Temp;Humidity;BMP_temperature;BMP_pressure;BME280_temperature;BME280_humidity;BME280_pressure;Samples;Min_cycle;Max_cycle;Signal;HPM_P1;HPM_P2
2021/12/08 00:01:20;;;;;;;1.45;0.75;;;17.50;47.60;;;;;;5143594;27;44795;-76
2021/12/08 00:03:47;;;;;;;1.10;0.70;;;17.50;48.10;;;;;;5152612;27;45716;-76
2021/12/08 00:06:16;;;;;;;0.98;0.60;;;17.50;47.80;;;;;;5169306;27;44608;-76
2021/12/08 00:08:49;;;;;;;0.98;0.70;;;17.50;47.70;;;;;;5157745;27;44627;-76
2021/12/08 00:14:00;;;;;;;1.13;0.60;;;17.50;47.90;;;;;;5156436;27;45363;-76
2021/12/08 00:16:27;;;;;;;2.75;0.82;;;17.50;47.60;;;;;;5156651;27;44658;-76
2021/12/08 00:18:57;;;;;;;0.93;0.68;;;17.50;47.80;;;;;;5155023;27;44805;-76
2021/12/08 00:21:27;;;;;;;1.25;0.70;;;17.50;47.80;;;;;;5163993;27;44718;-76
2021/12/08 00:23:54;;;;;;;1.92;0.80;;;17.50;48.90;;;;;;5157751;27;47253;-76
2021/12/08 00:26:21;;;;;;;1.23;0.70;;;17.40;48.40;;;;;;5175264;27;44749;-76
2021/12/08 00:28:48;;;;;;;1.15;0.90;;;17.40;48.20;;;;;;5172085;27;44671;-76
2021/12/08 00:31:15;;;;;;;1.23;0.70;;;17.40;48.20;;;;;;5156403;27;44807;-76
2021/12/08 00:33:42;;;;;;;1.20;0.60;;;17.40;48.10;;;;;;5153581;27;46781;-76
2021/12/08 00:36:13;;;;;;;1.02;0.60;;;17.40;48.00;;;;;;5157064;27;44562;-76
2021/12/08 00:38:42;;;;;;;1.02;0.70;;;17.40;48.00;;;;;;5156792;27;44599;-76
2021/12/08 00:41:09;;;;;;;1.77;0.80;;;17.40;48.10;;;;;;5169686;27;44662;-76
2021/12/08 00:43:36;;;;;;;0.70;0.60;;;17.40;47.80;;;;;;5164409;27;47056;-76
2021/12/08 00:46:03;;;;;;;1.52;0.70;;;17.40;48.20;;;;;;5145235;27;44728;-77
2021/12/08 00:48:30;;;;;;;1.38;0.95;;;17.40;47.90;;;;;;5153284;27;44865;-77
2021/12/08 00:50:56;;;;;;;1.38;0.65;;;17.40;48.00;;;;;;5141951;27;44733;-77
2021/12/08 00:53:24;;;;;;;2.38;0.73;;;17.40;48.10;;;;;;5155429;27;47050;-76
2021/12/08 00:55:52;;;;;;;2.00;0.77;;;17.50;48.30;;;;;;5147006;27;45154;-76
2021/12/08 00:58:19;;;;;;;2.38;0.60;;;17.50;48.30;;;;;;5146508;27;44822;-76
2021/12/08 01:00:49;;;;;;;1.23;0.63;;;17.50;48.20;;;;;;5159721;27;44880;-76
2021/12/08 01:03:17;;;;;;;1.70;0.50;;;17.50;48.40;;;;;;5171023;27;46860;-76
2021/12/08 01:05:46;;;;;;;1.95;0.73;;;17.50;48.50;;;;;;5158684;27;44760;-76
2021/12/08 01:08:13;;;;;;;1.38;0.73;;;17.50;48.40;;;;;;5169002;27;44578;-77
2021/12/08 01:10:42;;;;;;;2.10;0.70;;;17.50;48.50;;;;;;5153688;27;44838;-77
2021/12/08 01:13:14;;;;;;;1.92;0.73;;;17.50;48.50;;;;;;5140706;27;46868;-77
2021/12/08 01:15:45;;;;;;;0.88;0.50;;;17.50;48.40;;;;;;5152612;27;44818;-77
2021/12/08 01:18:13;;;;;;;1.08;0.70;;;17.50;48.50;;;;;;5153113;27;44645;-77
2021/12/08 01:20:40;;;;;;;1.20;0.63;;;17.50;48.70;;;;;;5152970;27;44745;-77
2021/12/08 01:23:06;;;;;;;0.85;0.40;;;17.50;48.50;;;;;;5158548;27;46623;-77
2021/12/08 01:25:34;;;;;;;2.65;0.60;;;17.50;48.60;;;;;;5159548;27;44677;-76
2021/12/08 01:28:01;;;;;;;1.65;0.60;;;17.50;48.50;;;;;;5173212;27;44703;-76
2021/12/08 01:30:29;;;;;;;1.25;0.45;;;17.50;48.70;;;;;;5167819;27;44966;-76
2021/12/08 01:32:56;;;;;;;0.70;0.40;;;17.50;48.70;;;;;;5157360;27;45497;-76
2021/12/08 01:35:24;;;;;;;1.27;0.60;;;17.50;48.80;;;;;;5152011;27;44655;-76
2021/12/08 01:37:51;;;;;;;1.23;0.60;;;17.50;48.80;;;;;;5161543;27;44643;-77
2021/12/08 01:40:19;;;;;;;0.95;0.68;;;17.50;48.80;;;;;;5173444;27;44831;-76
2021/12/08 01:42:49;;;;;;;1.10;0.70;;;17.40;48.80;;;;;;5157029;27;45332;-76
2021/12/08 01:48:08;;;;;;;0.52;0.45;;;17.40;48.80;;;;;;5142662;27;44651;-76
2021/12/08 01:50:36;;;;;;;0.55;0.40;;;17.40;48.80;;;;;;5159676;27;44742;-76
2021/12/08 01:53:04;;;;;;;2.38;0.50;;;17.40;48.90;;;;;;5153888;27;45381;-77
2021/12/08 01:55:32;;;;;;;1.25;0.60;;;17.40;48.90;;;;;;5154986;27;44772;-77
2021/12/08 01:57:59;;;;;;;1.17;0.60;;;17.40;48.80;;;;;;5151919;27;44921;-77
2021/12/08 02:00:30;;;;;;;0.38;0.30;;;17.40;48.90;;;;;;5170072;27;44828;-77
2021/12/08 02:02:57;;;;;;;1.52;0.45;;;17.50;49.40;;;;;;5156576;27;46594;-77
2021/12/08 02:05:25;;;;;;;0.80;0.43;;;17.50;49.20;;;;;;5156238;27;44833;-77
2021/12/08 02:07:53;;;;;;;1.05;0.43;;;17.50;49.20;;;;;;5160073;27;44677;-77
2021/12/08 02:10:21;;;;;;;1.27;0.60;;;17.50;49.20;;;;;;5161359;27;44772;-77
2021/12/08 02:12:48;;;;;;;0.40;0.40;;;17.50;49.20;;;;;;5148680;27;46842;-77
2021/12/08 02:15:17;;;;;;;0.68;0.50;;;17.50;49.10;;;;;;5152041;27;44860;-77
2021/12/08 02:17:46;;;;;;;0.65;0.43;;;17.50;49.20;;;;;;5149803;27;44697;-77
2021/12/08 02:20:15;;;;;;;1.20;0.55;;;17.50;49.20;;;;;;5151393;27;44797;-77
2021/12/08 02:22:44;;;;;;;0.65;0.50;;;17.60;49.30;;;;;;5145427;27;45200;-77
2021/12/08 02:25:14;;;;;;;1.25;0.45;;;17.60;49.40;;;;;;5138907;27;44870;-77
2021/12/08 02:27:41;;;;;;;0.65;0.45;;;17.50;49.20;;;;;;5150212;27;44556;-77
2021/12/08 02:30:15;;;;;;;0.52;0.40;;;17.60;49.30;;;;;;5150862;27;44939;-77
2021/12/08 02:46:45;;;;;;;0.80;0.60;;;17.60;49.30;;;;;;5143499;27;45189;-77
2021/12/08 02:49:12;;;;;;;0.85;0.47;;;17.50;49.20;;;;;;5150891;27;44666;-77
2021/12/08 02:51:40;;;;;;;1.10;0.45;;;17.50;49.30;;;;;;5149840;27;44830;-77
2021/12/08 02:54:09;;;;;;;0.70;0.45;;;17.50;49.30;;;;;;5149505;27;45243;-77
2021/12/08 02:56:36;;;;;;;0.82;0.50;;;17.50;49.40;;;;;;5151528;27;44790;-77
2021/12/08 02:59:04;;;;;;;1.02;0.60;;;17.50;49.40;;;;;;5149355;27;44753;-77
2021/12/08 03:01:31;;;;;;;0.82;0.45;;;17.50;49.50;;;;;;5152651;27;44916;-77
2021/12/08 03:03:58;;;;;;;1.15;0.40;;;17.50;49.40;;;;;;5153243;27;46609;-77
2021/12/08 03:06:25;;;;;;;2.38;0.60;;;17.50;49.50;;;;;;5154729;27;44634;-77
2021/12/08 03:08:52;;;;;;;0.82;0.50;;;17.50;49.50;;;;;;5154387;27;44622;-77
2021/12/08 03:11:20;;;;;;;0.63;0.40;;;17.50;49.50;;;;;;5151976;27;45339;-77
2021/12/08 03:14:01;;;;;;;1.77;0.50;;;17.50;49.60;;;;;;5153591;27;46561;-77
2021/12/08 03:16:28;;;;;;;0.30;0.30;;;17.50;49.50;;;;;;5154031;27;44672;-77
2021/12/08 03:18:55;;;;;;;0.90;0.52;;;17.50;49.60;;;;;;5153810;27;45006;-76
2021/12/08 03:21:28;;;;;;;0.45;0.40;;;17.50;49.60;;;;;;5153599;27;45279;-76
2021/12/08 03:24:06;;;;;;;0.60;0.30;;;17.50;49.60;;;;;;5152539;27;46744;-76
2021/12/08 03:26:43;;;;;;;0.93;0.50;;;17.60;49.60;;;;;;5144063;27;44757;-76
2021/12/08 03:29:20;;;;;;;0.68;0.40;;;17.60;49.50;;;;;;5153825;27;44753;-76
2021/12/08 03:31:49;;;;;;;0.55;0.38;;;17.50;49.60;;;;;;5152957;27;44792;-76
2021/12/08 03:34:19;;;;;;;1.20;0.50;;;17.60;49.60;;;;;;5154438;27;46654;-76
2021/12/08 03:36:46;;;;;;;1.17;0.50;;;17.50;50.80;;;;;;5153045;27;45035;-76
2021/12/08 03:39:12;;;;;;;0.50;0.40;;;17.50;49.60;;;;;;5151991;27;44931;-76
2021/12/08 03:41:41;;;;;;;0.40;0.30;;;17.50;49.70;;;;;;5148366;27;44762;-76
2021/12/08 03:44:08;;;;;;;0.65;0.30;;;17.50;49.70;;;;;;5144132;27;46408;-77
2021/12/08 03:46:40;;;;;;;0.30;0.30;;;17.50;49.70;;;;;;5151510;27;44620;-77
2021/12/08 03:49:10;;;;;;;1.30;0.60;;;17.50;49.80;;;;;;5154100;27;44720;-77
2021/12/08 03:51:38;;;;;;;1.08;0.50;;;17.50;49.70;;;;;;5155122;27;44901;-77
2021/12/08 03:54:06;;;;;;;0.45;0.30;;;17.50;49.90;;;;;;5158377;27;47826;-77
2021/12/08 03:56:33;;;;;;;0.55;0.35;;;17.50;49.80;;;;;;5152328;27;45749;-77
2021/12/08 03:59:03;;;;;;;1.20;0.52;;;17.50;49.80;;;;;;5152760;27;44609;-77
2021/12/08 04:01:30;;;;;;;0.90;0.50;;;17.50;49.90;;;;;;5153220;27;44970;-77
2021/12/08 04:04:02;;;;;;;1.00;0.40;;;17.50;49.70;;;;;;5153185;27;46588;-77
2021/12/08 04:06:33;;;;;;;0.50;0.38;;;17.50;49.80;;;;;;5152770;27;44810;-77
2021/12/08 04:09:05;;;;;;;1.00;0.60;;;17.50;49.70;;;;;;5151093;27;44876;-77
2021/12/08 04:11:32;;;;;;;1.90;0.55;;;17.50;49.50;;;;;;5150967;27;45141;-77
2021/12/08 04:14:04;;;;;;;0.95;0.43;;;17.50;49.40;;;;;;5154340;27;45093;-77
2021/12/08 04:16:35;;;;;;;1.00;0.50;;;17.50;49.30;;;;;;5152408;27;44941;-77
2021/12/08 04:19:04;;;;;;;0.45;0.30;;;17.50;49.40;;;;;;5152081;27;44814;-77
2021/12/08 04:21:32;;;;;;;0.50;0.40;;;17.50;49.30;;;;;;5152663;27;44871;-77
2021/12/08 04:23:59;;;;;;;0.50;0.32;;;17.50;49.20;;;;;;5153179;27;45186;-76
2021/12/08 04:26:31;;;;;;;0.47;0.38;;;17.50;49.20;;;;;;5153145;27;44974;-76
2021/12/08 04:28:58;;;;;;;1.20;0.32;;;17.50;49.30;;;;;;5153750;27;44632;-76
2021/12/08 04:31:29;;;;;;;0.52;0.32;;;17.50;49.10;;;;;;5153254;27;44753;-76
2021/12/08 04:34:01;;;;;;;0.43;0.38;;;17.50;49.10;;;;;;5152810;27;45575;-76
2021/12/08 04:36:37;;;;;;;0.85;0.45;;;17.50;49.20;;;;;;5153131;27;44618;-76
2021/12/08 04:39:09;;;;;;;0.55;0.40;;;17.50;49.10;;;;;;5151569;27;45033;-77
2021/12/08 04:41:41;;;;;;;0.82;0.40;;;17.50;49.20;;;;;;5151918;27;45143;-77
2021/12/08 04:44:21;;;;;;;0.98;0.40;;;17.50;49.10;;;;;;5153287;27;46655;-77
2021/12/08 04:47:04;;;;;;;1.17;0.50;;;17.50;49.20;;;;;;5152681;27;44582;-77
2021/12/08 04:50:04;;;;;;;0.77;0.30;;;17.50;49.30;;;;;;5152424;27;44704;-77
2021/12/08 04:52:35;;;;;;;1.42;0.20;;;17.50;49.20;;;;;;5152110;27;45992;-77
2021/12/08 05:01:11;;;;;;;0.47;0.28;;;17.50;49.20;;;;;;5150351;27;45326;-77
2021/12/08 05:03:49;;;;;;;0.40;0.30;;;17.50;49.00;;;;;;5149687;27;45950;-77
2021/12/08 05:06:23;;;;;;;0.98;0.40;;;17.50;49.10;;;;;;5149070;27;46895;-77
2021/12/08 05:08:53;;;;;;;0.52;0.40;;;17.60;49.30;;;;;;5150931;27;45139;-77
2021/12/08 05:11:23;;;;;;;2.10;0.60;;;17.50;49.10;;;;;;5151079;27;44733;-76
2021/12/08 05:13:54;;;;;;;0.75;0.40;;;17.50;49.40;;;;;;5152472;27;45952;-76
2021/12/08 05:16:21;;;;;;;0.73;0.35;;;17.50;49.50;;;;;;5157686;22;47393;-76
2021/12/08 05:18:51;;;;;;;0.60;0.40;;;17.50;49.30;;;;;;5144014;27;45399;-76
2021/12/08 05:21:22;;;;;;;2.05;0.98;;;17.50;49.20;;;;;;5143598;27;45576;-76
2021/12/08 05:23:55;;;;;;;1.80;1.10;;;17.40;49.10;;;;;;5137522;27;45436;-76
2021/12/08 05:26:25;;;;;;;1.52;0.95;;;17.50;49.20;;;;;;5149080;27;45544;-76
2021/12/08 05:28:55;;;;;;;1.88;0.85;;;17.40;49.20;;;;;;5150823;27;45263;-77
2021/12/08 05:31:26;;;;;;;1.40;0.80;;;17.40;49.20;;;;;;5148306;27;45193;-77
2021/12/08 05:33:56;;;;;;;1.27;0.60;;;17.40;49.10;;;;;;5147957;27;45144;-77
2021/12/08 05:36:23;;;;;;;0.82;0.50;;;17.40;49.30;;;;;;5150476;27;45812;-76
2021/12/08 05:38:53;;;;;;;0.90;0.73;;;17.40;49.20;;;;;;5150384;27;45273;-77
2021/12/08 05:41:24;;;;;;;1.77;0.60;;;17.40;49.40;;;;;;5149177;27;45240;-76
2021/12/08 05:43:52;;;;;;;1.88;0.70;;;17.40;49.50;;;;;;5151387;27;45332;-77
2021/12/08 05:46:20;;;;;;;2.28;0.80;;;17.40;49.40;;;;;;5144329;27;46479;-77
2021/12/08 05:48:49;;;;;;;1.15;0.60;;;17.40;49.40;;;;;;5134062;27;45251;-77
2021/12/08 05:51:21;;;;;;;1.60;0.57;;;17.40;49.30;;;;;;5149744;27;45184;-77
2021/12/08 05:53:53;;;;;;;2.00;0.52;;;17.40;49.20;;;;;;5149449;27;45546;-76
2021/12/08 05:56:21;;;;;;;2.47;0.93;;;17.50;49.30;;;;;;5148380;27;46791;-76
2021/12/08 05:58:50;;;;;;;1.85;0.60;;;17.50;49.30;;;;;;5145700;27;45146;-76
2021/12/08 06:01:20;;;;;;;2.40;0.77;;;17.50;49.30;;;;;;5146822;27;45165;-77
2021/12/08 06:03:49;;;;;;;2.20;0.68;;;17.50;49.40;;;;;;5150414;27;45374;-77
2021/12/08 06:06:21;;;;;;;2.08;0.70;;;17.50;49.50;;;;;;5150844;27;46397;-77
2021/12/08 06:08:48;;;;;;;1.13;0.65;;;17.40;50.00;;;;;;5149847;27;45291;-77
2021/12/08 06:11:16;;;;;;;1.17;0.55;;;17.40;51.60;;;;;;5149369;27;45135;-77
2021/12/08 06:13:46;;;;;;;2.03;0.50;;;17.40;51.60;;;;;;5145477;27;45329;-76
2021/12/08 06:16:18;;;;;;;1.92;0.70;;;17.40;51.60;;;;;;5149724;27;48714;-76
2021/12/08 06:18:48;;;;;;;1.00;0.60;;;17.40;51.60;;;;;;5145299;27;45542;-76
2021/12/08 06:21:20;;;;;;;1.38;0.50;;;17.40;51.60;;;;;;5148234;27;45339;-77
2021/12/08 06:23:48;;;;;;;1.42;0.68;;;17.40;51.00;;;;;;5148351;27;45153;-76
2021/12/08 06:26:19;;;;;;;2.55;0.77;;;17.40;51.60;;;;;;5147134;27;45512;-77
2021/12/08 06:28:48;;;;;;;2.45;1.00;;;17.40;51.80;;;;;;5148179;27;45781;-77
2021/12/08 06:31:17;;;;;;;0.98;0.47;;;17.40;51.60;;;;;;5147041;27;45311;-77
2021/12/08 06:33:45;;;;;;;1.55;0.55;;;17.40;51.60;;;;;;5148149;27;45433;-78
2021/12/08 06:36:15;;;;;;;1.48;0.60;;;17.50;51.80;;;;;;5150129;27;48225;-76
2021/12/08 06:38:45;;;;;;;2.65;0.85;;;17.50;51.50;;;;;;5147013;27;45347;-77
2021/12/08 06:41:16;;;;;;;0.82;0.70;;;17.50;50.90;;;;;;5147892;27;45509;-75
2021/12/08 06:43:53;;;;;;;1.80;0.52;;;17.60;50.70;;;;;;5151224;27;45171;-76
2021/12/08 06:46:20;;;;;;;1.55;0.60;;;17.60;50.20;;;;;;5148676;27;47320;-76
2021/12/08 06:48:50;;;;;;;2.45;0.82;;;17.60;50.30;;;;;;5148646;27;45216;-77
2021/12/08 06:51:20;;;;;;;1.55;0.50;;;17.60;51.30;;;;;;5148871;27;45396;-76
2021/12/08 06:53:54;;;;;;;1.08;0.60;;;17.60;51.90;;;;;;5152033;27;45384;-76
2021/12/08 06:56:28;;;;;;;0.95;0.50;;;17.60;51.90;;;;;;5150493;27;47864;-77
2021/12/08 06:58:58;;;;;;;2.10;0.75;;;17.70;51.90;;;;;;5152365;27;45553;-77
2021/12/08 07:01:39;;;;;;;1.67;0.60;;;17.70;51.90;;;;;;5153048;27;45489;-77
2021/12/08 07:04:24;;;;;;;1.75;0.70;;;17.60;51.80;;;;;;5151161;27;45619;-77
2021/12/08 07:07:00;;;;;;;1.55;0.60;;;17.60;51.80;;;;;;5153108;27;47313;-77
2021/12/08 07:09:34;;;;;;;0.85;0.45;;;17.60;51.80;;;;;;5151470;27;45596;-77
2021/12/08 07:12:10;;;;;;;1.15;0.60;;;17.60;51.80;;;;;;5153217;27;45371;-77
2021/12/08 07:14:40;;;;;;;0.98;0.50;;;17.60;51.90;;;;;;5154356;27;45451;-77
2021/12/08 07:17:13;;;;;;;1.23;0.60;;;17.60;51.80;;;;;;5153308;27;45315;-77
2021/12/08 07:19:46;;;;;;;1.33;0.60;;;17.60;51.80;;;;;;5152850;27;45287;-77
2021/12/08 07:22:16;;;;;;;0.68;0.40;;;17.60;51.80;;;;;;5147647;27;45262;-77
2021/12/08 07:24:47;;;;;;;1.25;0.52;;;17.60;51.80;;;;;;5147130;27;45791;-77
2021/12/08 07:27:18;;;;;;;1.90;0.80;;;17.60;51.80;;;;;;5149115;27;47157;-77
2021/12/08 07:29:47;;;;;;;1.80;0.60;;;17.60;51.80;;;;;;5146736;27;45218;-78
2021/12/08 07:32:19;;;;;;;1.90;0.70;;;17.60;51.80;;;;;;5152269;27;45243;-76
2021/12/08 07:34:47;;;;;;;1.02;0.50;;;17.60;51.80;;;;;;5147653;27;45519;-75
2021/12/08 07:37:18;;;;;;;1.58;0.60;;;17.60;51.90;;;;;;5145376;27;48360;-77
2021/12/08 07:39:51;;;;;;;1.75;0.50;;;17.60;52.50;;;;;;5147150;27;45654;-77
2021/12/08 07:42:23;;;;;;;1.83;0.60;;;17.60;52.40;;;;;;5148921;27;46366;-77
2021/12/08 07:44:55;;;;;;;1.33;0.60;;;17.70;52.40;;;;;;5148111;27;45554;-77
2021/12/08 07:47:24;;;;;;;2.40;0.80;;;17.60;52.00;;;;;;5151295;27;45462;-77
2021/12/08 07:49:59;;;;;;;1.63;0.50;;;17.60;51.80;;;;;;5150509;27;45327;-77
2021/12/08 07:52:30;;;;;;;1.88;0.75;;;17.60;51.80;;;;;;5147520;27;45572;-77
2021/12/08 07:54:59;;;;;;;1.38;0.52;;;17.60;51.90;;;;;;5152901;27;45403;-77
2021/12/08 07:57:34;;;;;;;1.85;0.77;;;17.60;51.80;;;;;;5151346;27;48848;-77
2021/12/08 08:00:09;;;;;;;0.70;0.40;;;17.60;51.80;;;;;;5151328;27;46099;-77
2021/12/08 08:02:38;;;;;;;1.23;0.50;;;17.60;51.80;;;;;;5145002;27;45479;-77
2021/12/08 08:05:09;;;;;;;0.90;0.57;;;17.60;51.80;;;;;;5151363;27;45217;-77
2021/12/08 08:07:37;;;;;;;2.22;0.52;;;17.60;51.80;;;;;;5148590;27;46390;-77
2021/12/08 08:10:13;;;;;;;1.75;0.60;;;17.60;53.00;;;;;;5151077;27;45309;-77
2021/12/08 08:12:42;;;;;;;2.97;0.60;;;17.60;51.80;;;;;;5132912;27;45407;-77
2021/12/08 08:15:15;;;;;;;0.77;0.52;;;17.60;51.80;;;;;;5150664;27;45328;-77
2021/12/08 08:17:46;;;;;;;1.13;0.63;;;17.60;51.80;;;;;;5151551;27;47440;-77
2021/12/08 08:20:17;;;;;;;0.80;0.32;;;17.60;51.90;;;;;;5151730;27;45910;-77
2021/12/08 08:22:45;;;;;;;1.17;0.50;;;17.60;51.80;;;;;;5147190;27;45466;-77
2021/12/08 08:25:17;;;;;;;1.13;0.70;;;17.60;51.80;;;;;;5144514;27;45318;-77
2021/12/08 08:27:45;;;;;;;0.88;0.60;;;17.60;51.80;;;;;;5151427;27;48367;-77
2021/12/08 08:30:18;;;;;;;2.30;0.75;;;17.60;51.80;;;;;;5151389;27;45363;-77
2021/12/08 08:32:48;;;;;;;1.70;0.63;;;17.60;51.80;;;;;;5152526;27;45284;-77
2021/12/08 08:35:19;;;;;;;0.90;0.40;;;17.60;51.80;;;;;;5152466;27;45361;-77
2021/12/08 08:37:49;;;;;;;0.85;0.60;;;17.60;51.80;;;;;;5133058;27;45463;-77
2021/12/08 08:40:23;;;;;;;1.45;0.50;;;17.60;51.80;;;;;;5151919;27;45562;-77
2021/12/08 08:42:52;;;;;;;1.23;0.60;;;17.60;51.90;;;;;;5150229;27;45952;-77
2021/12/08 08:45:23;;;;;;;1.90;0.68;;;17.60;51.90;;;;;;5152919;27;45226;-77
2021/12/08 08:47:55;;;;;;;1.42;0.50;;;17.60;51.40;;;;;;5151008;27;47307;-77
2021/12/08 08:50:30;;;;;;;1.40;0.57;;;17.60;51.50;;;;;;5150697;27;46164;-77
2021/12/08 08:53:02;;;;;;;1.23;0.50;;;17.60;51.90;;;;;;5149690;27;45201;-77
2021/12/08 08:55:34;;;;;;;1.25;0.60;;;17.60;51.80;;;;;;5149389;27;45876;-77
2021/12/08 08:58:02;;;;;;;2.60;0.70;;;17.60;51.90;;;;;;5136942;27;47778;-77
2021/12/08 09:00:35;;;;;;;0.85;0.43;;;17.60;51.40;;;;;;5146256;27;45242;-77
2021/12/08 09:03:05;;;;;;;1.35;0.70;;;17.60;51.40;;;;;;5140749;27;45244;-77
2021/12/08 09:05:37;;;;;;;1.45;0.75;;;17.60;51.30;;;;;;5151432;27;45561;-77
2021/12/08 09:08:07;;;;;;;1.48;0.60;;;17.60;51.80;;;;;;5150465;27;47823;-77
2021/12/08 09:10:41;;;;;;;1.33;0.57;;;17.60;51.50;;;;;;5151713;27;45177;-77
2021/12/08 09:13:15;;;;;;;2.55;0.80;;;17.60;51.40;;;;;;5150756;27;45292;-77
2021/12/08 09:15:46;;;;;;;1.17;0.60;;;17.60;51.60;;;;;;5150267;27;45196;-77
2021/12/08 09:18:18;;;;;;;1.65;0.65;;;17.60;51.50;;;;;;5142311;27;47266;-78
2021/12/08 09:20:55;;;;;;;1.45;0.68;;;17.60;51.30;;;;;;5149843;27;46047;-77
2021/12/08 09:23:30;;;;;;;1.35;0.77;;;17.60;51.40;;;;;;5149522;27;45236;-77
2021/12/08 09:26:00;;;;;;;1.77;0.60;;;17.60;51.80;;;;;;5151772;27;45300;-77
2021/12/08 09:28:34;;;;;;;1.95;0.80;;;17.60;51.70;;;;;;5151194;27;47404;-77
2021/12/08 09:31:11;;;;;;;1.85;0.50;;;17.60;51.40;;;;;;5150218;27;45105;-77
2021/12/08 09:33:47;;;;;;;1.83;0.60;;;17.60;51.50;;;;;;5151390;27;45406;-77
2021/12/08 09:36:19;;;;;;;1.30;0.52;;;17.60;51.40;;;;;;5151726;27;45424;-77
2021/12/08 09:38:50;;;;;;;1.10;0.60;;;17.60;51.80;;;;;;5147961;27;48149;-77
2021/12/08 09:41:27;;;;;;;0.60;0.40;;;17.60;51.80;;;;;;5151245;27;45136;-77
2021/12/08 09:43:59;;;;;;;2.15;0.60;;;17.60;51.80;;;;;;5150748;27;45341;-77
2021/12/08 09:46:30;;;;;;;1.42;0.60;;;17.60;51.60;;;;;;5151225;27;45186;-77
2021/12/08 09:48:57;;;;;;;1.13;0.60;;;17.60;51.60;;;;;;5150656;27;48163;-77
2021/12/08 09:51:27;;;;;;;0.88;0.52;;;17.60;51.30;;;;;;5149303;27;45505;-77
2021/12/08 09:53:55;;;;;;;1.05;0.50;;;17.60;51.40;;;;;;5151210;27;45356;-77
2021/12/08 09:56:27;;;;;;;1.00;0.60;;;17.60;51.40;;;;;;5148143;27;45218;-77
2021/12/08 09:59:01;;;;;;;1.67;0.75;;;17.60;51.40;;;;;;5132319;27;47610;-77
2021/12/08 10:01:29;;;;;;;1.52;0.77;;;17.60;51.60;;;;;;5147746;27;45890;-77
2021/12/08 10:03:57;;;;;;;2.30;0.50;;;17.60;51.00;;;;;;5150862;27;45186;-77
2021/12/08 10:06:26;;;;;;;1.77;0.70;;;17.60;51.20;;;;;;5151509;27;45448;-77
2021/12/08 10:08:57;;;;;;;1.35;0.60;;;17.60;52.40;;;;;;5150200;27;46290;-77
2021/12/08 10:11:28;;;;;;;1.63;0.77;;;17.60;51.00;;;;;;5153007;27;45248;-77
2021/12/08 10:13:56;;;;;;;2.47;0.70;;;17.60;50.90;;;;;;5152543;27;45290;-77
2021/12/08 10:16:26;;;;;;;1.67;0.50;;;17.60;51.20;;;;;;5153965;27;45558;-77
2021/12/08 10:18:55;;;;;;;2.28;0.52;;;17.60;51.00;;;;;;5149176;27;46364;-77
2021/12/08 10:21:31;;;;;;;1.52;0.65;;;17.60;51.00;;;;;;5153288;27;45508;-77
2021/12/08 10:23:58;;;;;;;1.58;0.80;;;17.60;50.70;;;;;;5153690;27;45432;-77
2021/12/08 10:26:27;;;;;;;1.60;0.70;;;17.60;50.90;;;;;;5155000;27;45248;-77
2021/12/08 10:28:55;;;;;;;2.25;0.60;;;17.60;50.70;;;;;;5146547;27;47633;-77
2021/12/08 10:31:27;;;;;;;2.25;0.70;;;17.60;50.50;;;;;;5153048;27;45324;-77
2021/12/08 10:34:06;;;;;;;1.30;0.60;;;17.60;52.00;;;;;;5154224;27;45385;-77
2021/12/08 10:36:44;;;;;;;1.45;0.60;;;17.60;50.50;;;;;;5151575;27;45170;-77
2021/12/08 10:39:15;;;;;;;2.45;0.75;;;17.60;50.70;;;;;;5136755;27;48408;-77
2021/12/08 10:42:03;;;;;;;1.85;0.57;;;17.60;50.70;;;;;;5145614;27;45367;-77
2021/12/08 10:44:38;;;;;;;3.53;0.82;;;17.60;50.70;;;;;;5154205;27;45258;-77
2021/12/08 10:47:08;;;;;;;0.70;0.43;;;17.60;50.60;;;;;;5154145;27;45161;-77
2021/12/08 10:55:18;;;;;;;1.38;0.52;;;17.60;50.70;;;;;;5152409;27;45240;-77
2021/12/08 10:57:50;;;;;;;0.60;0.40;;;17.60;50.70;;;;;;5152941;27;45406;-77
2021/12/08 11:00:20;;;;;;;1.23;0.55;;;17.60;50.50;;;;;;5150724;27;47485;-77
2021/12/08 11:02:50;;;;;;;1.65;0.60;;;17.60;50.80;;;;;;5151930;27;45305;-77
2021/12/08 11:05:51;;;;;;;1.55;0.55;;;17.60;50.50;;;;;;5150223;27;46860;-77
2021/12/08 11:08:28;;;;;;;1.20;0.70;;;17.60;50.40;;;;;;5095013;27;45392;-77
2021/12/08 11:10:58;;;;;;;2.03;0.70;;;17.60;50.60;;;;;;5132437;27;46510;-77
2021/12/08 11:13:30;;;;;;;1.83;0.80;;;17.60;50.10;;;;;;5150282;27;46291;-77
2021/12/08 11:16:06;;;;;;;1.95;0.70;;;17.60;50.20;;;;;;5131096;27;45197;-78
2021/12/08 11:18:38;;;;;;;1.27;0.50;;;17.60;50.20;;;;;;5143678;27;45126;-77
2021/12/08 11:21:13;;;;;;;1.52;0.70;;;17.60;50.10;;;;;;5140318;27;48170;-77
2021/12/08 11:23:41;;;;;;;1.92;0.60;;;17.60;50.00;;;;;;5145866;27;46234;-77
2021/12/08 11:26:27;;;;;;;2.40;0.75;;;17.60;50.00;;;;;;5147566;27;45219;-77
2021/12/08 11:29:00;;;;;;;3.05;0.60;;;17.60;50.00;;;;;;5132664;27;45538;-77
2021/12/08 11:31:34;;;;;;;1.23;0.55;;;17.60;50.00;;;;;;5147859;27;47468;-77
2021/12/08 11:34:04;;;;;;;1.70;0.60;;;17.60;49.90;;;;;;5148575;27;45295;-77
2021/12/08 11:36:35;;;;;;;1.02;0.60;;;17.60;49.90;;;;;;5152542;27;45218;-77
2021/12/08 11:39:11;;;;;;;1.60;0.80;;;17.60;50.00;;;;;;5136257;27;45251;-78
2021/12/08 11:41:40;;;;;;;1.27;0.70;;;17.60;50.00;;;;;;5145849;27;47423;-77
2021/12/08 11:44:12;;;;;;;2.45;0.90;;;17.60;50.20;;;;;;5139689;27;45177;-77
2021/12/08 11:46:43;;;;;;;1.25;0.75;;;17.60;50.20;;;;;;5145245;27;45143;-77
2021/12/08 11:49:11;;;;;;;2.75;1.08;;;17.60;49.90;;;;;;5151994;27;45383;-77
2021/12/08 11:52:02;;;;;;;1.90;0.82;;;17.60;50.10;;;;;;5146002;27;47482;-77
2021/12/08 11:54:39;;;;;;;1.13;0.70;;;17.60;50.20;;;;;;5152968;27;46416;-77
2021/12/08 11:57:12;;;;;;;1.10;0.70;;;17.60;50.30;;;;;;5144567;27;45281;-77
2021/12/08 11:59:59;;;;;;;1.63;0.60;;;17.60;50.00;;;;;;5145999;27;45493;-77
2021/12/08 12:02:32;;;;;;;2.22;0.52;;;17.70;50.10;;;;;;5144375;27;47561;-77
2021/12/08 12:05:00;;;;;;;2.90;1.00;;;17.70;50.10;;;;;;5151016;27;45523;-77
2021/12/08 12:07:27;;;;;;;1.05;0.60;;;17.60;49.60;;;;;;5150978;27;45330;-77
2021/12/08 12:09:55;;;;;;;1.65;0.70;;;17.60;49.60;;;;;;5151943;27;45184;-77
2021/12/08 12:12:22;;;;;;;2.10;0.88;;;17.60;49.60;;;;;;5149946;27;47087;-77
2021/12/08 12:14:51;;;;;;;2.35;0.75;;;17.60;49.70;;;;;;5145248;27;45334;-77
2021/12/08 12:17:18;;;;;;;1.27;0.57;;;17.60;49.60;;;;;;5148522;27;45139;-77
2021/12/08 12:19:58;;;;;;;1.13;0.40;;;17.60;49.70;;;;;;5149640;27;45150;-77
2021/12/08 12:22:45;;;;;;;0.35;0.35;;;17.60;49.60;;;;;;5147437;27;45506;-77
2021/12/08 12:25:38;;;;;;;1.92;0.80;;;17.60;49.50;;;;;;5151788;27;46646;-77
2021/12/08 12:28:25;;;;;;;1.67;0.75;;;17.60;49.40;;;;;;5148050;27;45517;-77
2021/12/08 12:31:05;;;;;;;1.08;0.60;;;17.60;49.20;;;;;;5145099;27;45327;-77
2021/12/08 12:33:42;;;;;;;1.10;0.60;;;17.60;49.10;;;;;;5131629;27;46860;-77
2021/12/08 12:36:21;;;;;;;2.28;0.70;;;17.60;49.00;;;;;;5128693;27;45312;-77
2021/12/08 12:38:49;;;;;;;1.20;0.68;;;17.60;49.40;;;;;;5149976;27;45174;-77
2021/12/08 12:41:27;;;;;;;0.98;0.60;;;17.70;49.20;;;;;;5132548;27;45100;-77
2021/12/08 12:44:14;;;;;;;1.42;0.52;;;17.60;49.10;;;;;;5142342;27;47438;-77
2021/12/08 12:47:14;;;;;;;1.00;0.45;;;17.60;49.00;;;;;;5147622;27;45707;-77
2021/12/08 12:49:44;;;;;;;1.77;0.57;;;17.60;48.90;;;;;;5132728;27;45479;-77
2021/12/08 12:52:14;;;;;;;1.10;0.45;;;17.60;49.10;;;;;;5146152;27;45203;-77
2021/12/08 12:54:46;;;;;;;1.05;0.50;;;17.60;48.50;;;;;;5151995;27;45384;-77
2021/12/08 12:57:13;;;;;;;1.10;0.50;;;17.70;48.50;;;;;;5150318;27;45380;-77
2021/12/08 12:59:43;;;;;;;0.95;0.50;;;17.60;48.20;;;;;;5144560;27;45256;-77
2021/12/08 13:02:14;;;;;;;1.67;0.50;;;17.60;48.20;;;;;;5150982;27;45415;-77
2021/12/08 13:05:10;;;;;;;1.75;0.70;;;17.60;48.30;;;;;;5149341;27;46366;-77
2021/12/08 13:07:42;;;;;;;1.83;0.60;;;17.60;48.50;;;;;;5145768;27;45458;-77
2021/12/08 13:10:12;;;;;;;2.80;0.70;;;17.60;48.30;;;;;;5140741;27;45579;-77
2021/12/08 13:12:42;;;;;;;1.05;0.60;;;17.60;48.10;;;;;;5139308;27;45266;-77
2021/12/08 13:15:12;;;;;;;1.60;0.55;;;17.60;48.20;;;;;;5146039;27;47898;-77
2021/12/08 13:18:01;;;;;;;0.75;0.30;;;17.60;48.10;;;;;;5151200;27;45240;-77
2021/12/08 13:20:29;;;;;;;1.20;0.50;;;17.60;48.10;;;;;;5151567;27;45225;-77
2021/12/08 13:23:00;;;;;;;0.70;0.40;;;17.60;48.20;;;;;;5149755;27;45120;-77
2021/12/08 13:25:58;;;;;;;1.50;0.50;;;17.60;48.30;;;;;;5152153;27;47145;-77
2021/12/08 13:28:47;;;;;;;0.57;0.43;;;17.60;48.60;;;;;;5093893;27;45190;-77
2021/12/08 13:31:24;;;;;;;1.27;0.40;;;17.60;48.40;;;;;;5134415;27;45208;-77
2021/12/08 13:34:02;;;;;;;2.13;0.57;;;17.60;48.80;;;;;;5152211;27;45284;-77
2021/12/08 13:36:36;;;;;;;1.27;0.60;;;17.70;48.40;;;;;;5151017;27;45461;-77
2021/12/08 13:39:27;;;;;;;2.75;0.70;;;17.60;48.60;;;;;;5150176;27;45426;-77
2021/12/08 13:41:58;;;;;;;1.63;0.57;;;17.60;48.60;;;;;;5149945;27;45289;-77